Flight Track Log - Related Links

Times and Time Zones

All times are in EDT time to prevent confusion due to time zone crossing. See the N281JB flight status page for this flight to view local times or setup timezone preferences in your user account.

Time Position Orientation Groundspeed Altitude Reporting Facility
EDT Latitude Longitude Course Direction KTS MPH feet Rate Location/Type
Thu 01:33:15 PM 28.4072 -81.2843 288° West  Level FlightAware Approximate
Thu 01:34:10 PM 28.4167 -81.3167 156° South 155 178 1,000  Level Orlando TRACON
Thu 01:34:59 PM 28.3833 -81.3000 120° Southeast 197 227 1,800 1,706 Climbing Orlando TRACON
Thu 01:35:59 PM 28.3500 -81.2333 120° Southeast 222 255 4,100 2,500 Climbing Orlando TRACON
Thu 01:36:59 PM 28.3167 -81.1667 112° Southeast 234 269 6,800 2,735 Climbing Orlando TRACON
Thu 01:38:26 PM 28.2828 -81.0694 125° Southeast 242 278 10,800 2,531 Climbing Miami Center
Thu 01:39:26 PM 28.2408 -81.0019 134° Southeast 247 284 13,000 2,050 Climbing Miami Center
Thu 01:40:26 PM 28.1864 -80.9386 134° Southeast 265 305 14,900 1,300 Climbing Miami Center
Thu 01:41:26 PM 28.1297 -80.8731 134° Southeast 308 354 15,600 1,150 Climbing Miami Center
Thu 01:42:26 PM 28.0489 -80.7786 136° Southeast 361 415 17,200 1,800 Climbing Miami Center
Thu 01:43:26 PM 27.9678 -80.6911 134° Southeast 387 445 19,200 2,000 Climbing Miami Center
Thu 01:44:26 PM 27.8889 -80.5992 134° Southeast 396 456 21,200 1,850 Climbing Miami Center
Thu 01:45:26 PM 27.8097 -80.5075 135° Southeast 402 463 22,900 1,550 Climbing Miami Center
Thu 01:46:26 PM 27.7244 -80.4108 135° Southeast 407 468 24,300 1,400 Climbing Miami Center
Thu 01:47:26 PM 27.6392 -80.3144 135° Southeast 420 483 25,700 1,250 Climbing Miami Center
Thu 01:48:26 PM 27.5681 -80.2350 135° Southeast 432 497 26,800 1,200 Climbing Miami Center
Thu 01:49:26 PM 27.4600 -80.1125 130° Southeast 448 516 28,100 1,200 Climbing Miami Center
Thu 01:50:26 PM 27.3789 -80.0025 128° Southeast 453 521 29,200 1,200 Climbing Miami Center
Thu 01:51:26 PM 27.2981 -79.8858 126° Southeast 458 527 30,500 1,300 Climbing Miami Center
Thu 01:52:26 PM 27.2231 -79.7717 128° Southeast 463 533 31,800 1,100 Climbing Miami Center
Thu 01:53:26 PM 27.1519 -79.6697 127° Southeast 470 541 32,700 1,000 Climbing Miami Center
Thu 01:54:26 PM 27.0747 -79.5533 127° Southeast 470 541 33,800 950 Climbing Miami Center
Thu 01:55:26 PM 26.9914 -79.4303 129° Southeast 459 528 34,600 600 Climbing Miami Center
Thu 01:56:26 PM 26.9097 -79.3189 128° Southeast 459 528 35,000 500 Climbing Miami Center
Thu 01:57:26 PM 26.8364 -79.2150 128° Southeast 459 528 35,600 550 Climbing Miami Center
Thu 01:58:26 PM 26.7567 -79.1017 128° Southeast 459 528 36,100 550 Climbing Miami Center
Thu 01:59:26 PM 26.6750 -78.9839 128° Southeast 469 540 36,700 450 Climbing Miami Center
Thu 02:00:26 PM 26.5972 -78.8711 128° Southeast 464 534 37,000 150 Climbing Miami Center
Thu 02:01:26 PM 26.5131 -78.7511 130° Southeast 472 543 37,000  Level Miami Center
Thu 02:02:26 PM 26.4186 -78.6244 127° Southeast 472 543 37,000  Level Miami Center
Thu 02:03:26 PM 26.3344 -78.5003 128° Southeast 485 558 37,000  Level Miami Center
Thu 02:04:26 PM 26.2500 -78.3808 128° Southeast 491 565 37,000  Level Miami Center
Thu 02:05:26 PM 26.1633 -78.2594 129° Southeast 496 571 37,000  Level Miami Center
Thu 02:06:26 PM 26.0789 -78.1450 128° Southeast 491 565 37,000  Level Miami Center
Thu 02:07:26 PM 25.9942 -78.0239 128° Southeast 491 565 37,000  Level Miami Center
Thu 02:08:26 PM 25.9114 -77.9053 128° Southeast 491 565 37,000  Level Miami Center
Thu 02:09:26 PM 25.8286 -77.7869 129° Southeast 491 565 37,000  Level Miami Center
Thu 02:10:26 PM 25.7417 -77.6686 129° Southeast 497 572 37,000  Level Miami Center
Thu 02:11:26 PM 25.6564 -77.5503 129° Southeast 492 566 37,000  Level Miami Center
Thu 02:12:26 PM 25.5797 -77.4439 128° Southeast 492 566 37,000  Level Miami Center
Thu 02:13:26 PM 25.4944 -77.3239 129° Southeast 492 566 37,000  Level Miami Center
Thu 02:14:26 PM 25.4069 -77.2061 128° Southeast 492 566 37,000  Level Miami Center
Thu 02:15:26 PM 25.3131 -77.0750 130° Southeast 492 566 37,000  Level Miami Center
Thu 02:16:26 PM 25.2233 -76.9575 129° Southeast 492 566 37,000  Level Miami Center
Thu 02:17:26 PM 25.1378 -76.8403 130° Southeast 497 572 37,000  Level Miami Center
Thu 02:18:26 PM 25.0478 -76.7211 129° Southeast 497 572 37,000  Level Miami Center
Thu 02:19:26 PM 24.9597 -76.6019 129° Southeast 497 572 37,000  Level Miami Center
Thu 02:20:26 PM 24.8739 -76.4853 129° Southeast 497 572 37,000  Level Miami Center
Thu 02:21:26 PM 24.7878 -76.3667 130° Southeast 497 572 37,000  Level Miami Center
Thu 02:22:26 PM 24.6975 -76.2481 127° Southeast 497 572 37,000  Level Miami Center
Thu 02:23:26 PM 24.6239 -76.1411 130° Southeast 497 572 37,000  Level Miami Center
Thu 02:24:26 PM 24.5356 -76.0272 129° Southeast 491 565 37,000  Level Miami Center
Thu 02:25:26 PM 24.4469 -75.9069 131° Southeast 498 573 37,000  Level Miami Center
Thu 02:26:26 PM 24.3564 -75.7936 129° Southeast 498 573 37,000  Level Miami Center
Thu 02:27:26 PM 24.2614 -75.6644 130° Southeast 498 573 37,000  Level Miami Center
Thu 02:28:26 PM 24.1725 -75.5469 129° Southeast 498 573 37,000  Level Miami Center
Thu 02:29:26 PM 24.0858 -75.4294 130° Southeast 498 573 37,000  Level Miami Center
Thu 02:30:26 PM 23.9969 -75.3122 130° Southeast 498 573 37,000  Level Miami Center
Thu 02:31:26 PM 23.9078 -75.1972 130° Southeast 498 573 37,000  Level Miami Center
Thu 02:32:26 PM 23.8208 -75.0825 130° Southeast 493 567 37,000  Level Miami Center
Thu 02:33:26 PM 23.7339 -74.9703 129° Southeast 493 567 37,000  Level Miami Center
Thu 02:34:26 PM 23.6467 -74.8536 131° Southeast 488 562 37,000  Level Miami Center
Thu 02:35:26 PM 23.5572 -74.7397 130° Southeast 493 567 37,000  Level Miami Center
Thu 02:36:26 PM 23.4719 -74.6278 130° Southeast 493 567 37,000  Level Miami Center
Thu 02:37:26 PM 23.3825 -74.5117 129° Southeast 493 567 37,000  Level Miami Center
Thu 02:38:26 PM 23.2972 -74.3978 130° Southeast 493 567 37,000  Level Miami Center
Thu 02:39:26 PM 23.2053 -74.2797 131° Southeast 493 567 37,000  Level Miami Center
Thu 02:40:26 PM 23.1156 -74.1664 130° Southeast 493 567 37,000  Level Miami Center
Thu 02:41:26 PM 23.0278 -74.0531 130° Southeast 493 567 37,000  Level Miami Center
Thu 02:42:26 PM 22.9378 -73.9356 131° Southeast 493 567 37,000  Level Miami Center
Thu 02:43:26 PM 22.8458 -73.8206 131° Southeast 493 567 37,000  Level Miami Center
Thu 02:44:26 PM 22.7536 -73.7056 130° Southeast 498 573 37,000  Level Miami Center
Thu 02:45:26 PM 22.6656 -73.5908 130° Southeast 498 573 37,000  Level Miami Center
Thu 02:46:26 PM 22.5775 -73.4761 132° Southeast 498 573 37,000  Level Miami Center
Thu 02:47:26 PM 22.4828 -73.3617 130° Southeast 498 573 37,000  Level Miami Center
Thu 02:48:26 PM 22.4053 -73.2603 131° Southeast 498 573 37,000  Level Miami Center
Thu 02:49:26 PM 22.3128 -73.1439 130° Southeast 498 573 37,000  Level Miami Center
Thu 02:50:26 PM 22.2244 -73.0300 130° Southeast 498 573 37,000  Level Miami Center
Thu 02:51:26 PM 22.1358 -72.9158 131° Southeast 498 573 37,000  Level Miami Center
Thu 02:52:26 PM 22.0453 -72.8044 130° Southeast 498 573 37,000  Level Miami Center
Thu 02:53:26 PM 21.9522 -72.6864 131° Southeast 503 579 37,000  Level Miami Center
Thu 02:54:26 PM 21.8614 -72.5753 131° Southeast 503 579 37,000  Level Miami Center
Thu 02:55:26 PM 21.7706 -72.4619 130° Southeast 498 573 37,000  Level Miami Center
Thu 02:56:26 PM 21.6817 -72.3489 130° Southeast 498 573 37,000  Level Miami Center
Thu 02:57:26 PM 21.5906 -72.2336 132° Southeast 498 573 37,000  Level Miami Center
Thu 02:58:26 PM 21.4997 -72.1253 131° Southeast 498 573 37,000  Level Miami Center
Thu 02:59:26 PM 21.4086 -72.0128 130° Southeast 498 573 37,000  Level Miami Center
Thu 03:00:26 PM 21.3194 -71.9003 131° Southeast 498 573 37,000  Level Miami Center
Thu 03:01:26 PM 21.2172 -71.7747 131° Southeast 498 573 37,000  Level Miami Center
Thu 03:02:26 PM 21.1281 -71.6647 131° Southeast 503 579 37,000  Level Miami Center
Thu 03:03:26 PM 21.0367 -71.5528 131° Southeast 503 579 37,000  Level Miami Center
Thu 03:04:26 PM 20.9450 -71.4389 131° Southeast 498 573 37,000  Level Miami Center
Thu 03:05:26 PM 20.8514 -71.3250 140° Southeast 498 573 37,000  Level Miami Center
Thu 03:06:26 PM 20.7458 -71.2294 146° Southeast 493 567 37,000  Level Miami Center
Thu 03:07:26 PM 20.6344 -71.1478 146° Southeast 488 562 37,000  Level Miami Center
Thu 03:08:26 PM 20.5208 -71.0661 147° Southeast 494 568 37,000  Level Miami Center
Thu 03:09:26 PM 20.4053 -70.9847 146° Southeast 499 574 37,000  Level Miami Center
Thu 03:10:26 PM 20.2897 -70.9014 147° Southeast 499 574 37,000  Level Miami Center
Thu 03:18:15 PM 19.6968 -70.4982 129° Southeast  Level FlightAware Approximate
Thu 03:19:15 PM 19.6197 -70.3985 149° Southeast  Level FlightAware Approximate
Thu 03:20:15 PM 19.5159 -70.3317 108° East  Level FlightAware Approximate
Thu 03:21:15 PM 19.4781 -70.2099 153° Southeast  Level FlightAware Approximate
Thu 03:22:15 PM 19.3699 -70.1513 153° Southeast  Level FlightAware Approximate
Thu 03:23:15 PM 19.2617 -70.0928 153° Southeast  Level FlightAware Approximate
Thu 03:24:15 PM 19.1535 -70.0344 153° Southeast  Level FlightAware Approximate
Thu 03:25:15 PM 19.0453 -69.9760 153° Southeast  Level FlightAware Approximate
Thu 03:26:15 PM 18.9371 -69.9178 153° Southeast  Level FlightAware Approximate
Thu 03:27:15 PM 18.8288 -69.8596 153° Southeast  Level FlightAware Approximate
Thu 03:28:15 PM 18.7205 -69.8015 141° Southeast  Level FlightAware Approximate
Thu 03:29:15 PM 18.6313 -69.7240 163° South  Level FlightAware Approximate
Thu 03:30:15 PM 18.5161 -69.6865 161° South  Level FlightAware Approximate
Thu 03:31:15 PM 18.4167 -69.6500 306° West  Level FlightAware Approximate
Thu 03:32:15 PM 18.4899 -69.7567 126° Southeast  Level Estimated
Thu 03:33:15 PM 18.4167 -69.6500 306° West  Level FlightAware Approximate
Thu 03:34:15 PM 18.4899 -69.7567 126° Southeast  Level Estimated
Thu 03:35:15 PM 18.4167 -69.6500 126° Southeast  Level FlightAware Approximate

Login

Don't have an account? Register now (free) for customized features, flight alerts, and more!